createdAt,value
2023-02-04T00:00:40.291Z,99.90
2023-02-04T00:03:08.531Z,99.90
2023-02-04T00:05:39.265Z,99.90
2023-02-04T00:08:07.664Z,99.90
2023-02-04T00:10:36.373Z,99.90
2023-02-04T00:13:05.886Z,99.90
2023-02-04T00:15:34.027Z,99.90
2023-02-04T00:18:02.219Z,99.90
2023-02-04T00:20:30.856Z,99.90
2023-02-04T00:22:59.303Z,99.90
2023-02-04T00:25:27.557Z,99.90
2023-02-04T00:27:55.790Z,99.90
2023-02-04T00:30:25.383Z,99.90
2023-02-04T00:32:55.055Z,99.90
2023-02-04T00:35:25.864Z,99.90
2023-02-04T00:37:57.550Z,99.90
2023-02-04T00:40:27.272Z,99.90
2023-02-04T00:42:57.941Z,99.90
2023-02-04T00:45:27.509Z,99.90
2023-02-04T00:47:58.290Z,99.90
2023-02-04T00:50:29.758Z,99.90
2023-02-04T00:53:02.036Z,99.90
2023-02-04T00:55:31.305Z,99.90
2023-02-04T00:58:00.200Z,99.90
2023-02-04T01:00:30.143Z,99.90
2023-02-04T01:03:00.771Z,99.90
2023-02-04T01:05:28.892Z,99.90
2023-02-04T01:07:57.099Z,99.90
2023-02-04T01:10:27.036Z,99.90
2023-02-04T01:12:55.363Z,99.90
2023-02-04T01:15:23.830Z,99.90
2023-02-04T01:17:53.438Z,99.90
2023-02-04T01:20:21.763Z,99.90
2023-02-04T01:22:50.344Z,99.90
2023-02-04T01:25:18.717Z,99.90
2023-02-04T01:27:47.144Z,99.90
2023-02-04T01:30:16.754Z,99.90
2023-02-04T01:32:44.994Z,99.90
2023-02-04T01:35:14.537Z,99.90
2023-02-04T01:37:42.757Z,99.90
2023-02-04T01:40:12.640Z,99.90
2023-02-04T01:42:41.295Z,99.90
2023-02-04T01:45:10.614Z,99.90
2023-02-04T01:47:39.131Z,99.90
2023-02-04T01:50:08.668Z,99.90
2023-02-04T01:52:40.878Z,99.90
2023-02-04T01:55:15.231Z,99.90
2023-02-04T01:57:45.981Z,99.90
2023-02-04T02:00:18.801Z,99.90
2023-02-04T02:02:51.681Z,99.90
2023-02-04T02:05:25.711Z,99.90
2023-02-04T02:07:57.731Z,99.90
2023-02-04T02:10:26.514Z,99.90
2023-02-04T02:12:55.796Z,99.90
2023-02-04T02:15:24.968Z,99.90
2023-02-04T02:17:53.773Z,99.90
2023-02-04T02:20:23.542Z,99.90
2023-02-04T02:23:01.565Z,99.90
2023-02-04T02:25:31.294Z,99.90
2023-02-04T02:28:00.253Z,99.90
2023-02-04T02:30:30.292Z,99.90
2023-02-04T02:33:01.132Z,99.90
2023-02-04T02:35:29.392Z,99.90
2023-02-04T02:37:58.755Z,99.90
2023-02-04T02:40:27.300Z,99.90
2023-02-04T02:42:59.390Z,99.90
2023-02-04T02:45:30.145Z,99.90
2023-02-04T02:48:00.868Z,99.90
2023-02-04T02:50:31.803Z,99.90
2023-02-04T02:53:01.999Z,99.90
2023-02-04T02:55:30.456Z,99.90
2023-02-04T02:58:00.845Z,99.90
2023-02-04T03:00:31.202Z,99.90
2023-02-04T03:03:03.595Z,99.90
2023-02-04T03:05:37.075Z,99.90
2023-02-04T03:08:06.529Z,99.90
2023-02-04T03:10:36.158Z,99.90
2023-02-04T03:13:06.341Z,99.90
2023-02-04T03:15:37.849Z,99.90
2023-02-04T03:18:06.814Z,99.90
2023-02-04T03:20:35.826Z,99.90
2023-02-04T03:23:04.017Z,99.90
2023-02-04T03:25:32.469Z,99.90
2023-02-04T03:28:01.134Z,99.90
2023-02-04T03:30:31.391Z,99.90
2023-02-04T03:33:00.061Z,99.90
2023-02-04T03:35:30.586Z,99.90
2023-02-04T03:37:58.736Z,99.90
2023-02-04T03:40:26.900Z,99.90
2023-02-04T03:42:55.347Z,99.90
2023-02-04T03:45:27.089Z,99.90
2023-02-04T03:47:58.078Z,99.90
2023-02-04T03:50:26.251Z,99.90
2023-02-04T03:52:54.483Z,99.90
2023-02-04T03:55:22.626Z,99.90
2023-02-04T03:57:50.842Z,99.90
2023-02-04T04:00:19.263Z,99.90
2023-02-04T04:02:47.745Z,99.90
2023-02-04T04:05:17.681Z,99.90
2023-02-04T04:07:46.176Z,99.90
2023-02-04T04:10:14.492Z,99.90
2023-02-04T04:12:42.651Z,99.90
2023-02-04T04:15:11.254Z,99.90
2023-02-04T04:17:39.615Z,99.90
2023-02-04T04:20:08.303Z,99.90
2023-02-04T04:22:37.854Z,99.90
2023-02-04T04:25:06.522Z,99.90
2023-02-04T04:27:34.769Z,99.90
2023-02-04T04:30:03.185Z,99.90
2023-02-04T04:32:31.402Z,99.90
2023-02-04T04:34:59.619Z,99.90
2023-02-04T04:37:27.784Z,99.90
2023-02-04T04:39:57.298Z,99.90
2023-02-04T04:42:25.494Z,99.90
2023-02-04T04:44:53.682Z,99.90
2023-02-04T04:47:21.874Z,99.90
2023-02-04T04:49:50.227Z,99.90
2023-02-04T04:52:18.378Z,99.90
2023-02-04T04:54:46.774Z,99.90
2023-02-04T04:57:16.295Z,99.90
2023-02-04T04:59:44.463Z,99.90
2023-02-04T05:02:12.619Z,99.90
2023-02-04T05:04:40.872Z,99.90
2023-02-04T05:07:09.109Z,99.90
2023-02-04T05:09:37.369Z,99.90
2023-02-04T05:12:06.062Z,99.90
2023-02-04T05:14:35.585Z,99.90
2023-02-04T05:17:03.821Z,99.90
2023-02-04T05:19:32.093Z,99.90
2023-02-04T05:22:01.690Z,99.90
2023-02-04T05:24:30.080Z,99.90
2023-02-04T05:26:58.255Z,99.90
2023-02-04T05:29:26.431Z,99.90
2023-02-04T05:31:56.126Z,99.90
2023-02-04T05:34:24.334Z,99.90
2023-02-04T05:36:52.506Z,99.90
2023-02-04T05:39:20.691Z,99.90
2023-02-04T05:41:48.886Z,99.90
2023-02-04T05:44:17.017Z,99.90
2023-02-04T05:46:45.232Z,99.90
2023-02-04T05:49:17.258Z,99.90
2023-02-04T05:51:45.436Z,99.90
2023-02-04T05:54:19.374Z,99.90
2023-02-04T05:56:47.989Z,99.90
2023-02-04T05:59:16.355Z,99.90
2023-02-04T06:01:44.579Z,99.90
2023-02-04T06:04:12.798Z,99.90
2023-02-04T06:06:42.457Z,99.90
2023-02-04T06:09:10.683Z,99.90
2023-02-04T06:11:39.181Z,99.90
2023-02-04T06:14:07.420Z,99.90
2023-02-04T06:16:35.686Z,99.90
2023-02-04T06:19:06.704Z,99.90
2023-02-04T06:21:34.932Z,99.90
2023-02-04T06:24:05.489Z,99.90
2023-02-04T06:26:33.806Z,99.90
2023-02-04T06:29:04.491Z,99.90
2023-02-04T06:31:32.887Z,99.90
2023-02-04T06:34:01.234Z,99.90
2023-02-04T06:36:29.395Z,99.90
2023-02-04T06:39:00.043Z,99.90
2023-02-04T06:41:29.561Z,99.90
2023-02-04T06:43:57.766Z,99.90
2023-02-04T06:46:26.000Z,99.90
2023-02-04T06:48:57.305Z,99.90
2023-02-04T06:51:26.119Z,99.90
2023-02-04T06:53:54.255Z,99.90
2023-02-04T06:56:24.746Z,99.90
2023-02-04T06:58:54.295Z,99.90
2023-02-04T07:01:22.625Z,99.90
2023-02-04T07:03:50.835Z,99.90
2023-02-04T07:06:19.028Z,99.90
2023-02-04T07:08:47.546Z,99.90
2023-02-04T07:11:18.135Z,99.90
2023-02-04T07:13:46.434Z,99.90
2023-02-04T07:16:16.028Z,99.90
2023-02-04T07:18:44.309Z,99.90
2023-02-04T07:21:12.569Z,99.90
2023-02-04T07:23:40.715Z,99.90
2023-02-04T07:26:08.862Z,99.90
2023-02-04T07:28:38.648Z,99.90
2023-02-04T07:31:07.129Z,99.90
2023-02-04T07:33:36.781Z,99.90
2023-02-04T07:36:05.346Z,99.90
2023-02-04T07:38:33.538Z,99.90
2023-02-04T07:41:01.716Z,99.90
2023-02-04T07:43:30.021Z,99.90
2023-02-04T07:45:58.288Z,99.90
2023-02-04T07:48:26.458Z,99.90
2023-02-04T07:50:55.978Z,99.90
2023-02-04T07:53:24.109Z,99.90
2023-02-04T07:55:52.257Z,99.90
2023-02-04T07:58:20.392Z,99.90
2023-02-04T08:00:48.604Z,99.90
2023-02-04T08:03:16.946Z,99.90
2023-02-04T08:05:47.705Z,99.90
2023-02-04T08:08:17.276Z,99.90
2023-02-04T08:10:45.476Z,99.90
2023-02-04T08:13:13.790Z,99.90
2023-02-04T08:15:42.101Z,99.90
2023-02-04T08:18:10.340Z,99.90
2023-02-04T08:20:38.573Z,99.90
2023-02-04T08:23:06.837Z,99.90
2023-02-04T08:25:36.457Z,99.90
2023-02-04T08:28:04.947Z,99.90
2023-02-04T08:30:33.436Z,99.90
2023-02-04T08:33:01.856Z,99.90
2023-02-04T08:35:30.023Z,99.90
2023-02-04T08:37:58.211Z,99.90
2023-02-04T08:40:26.571Z,99.90
2023-02-04T08:42:56.193Z,99.90
2023-02-04T08:45:24.344Z,99.90
2023-02-04T08:47:52.533Z,99.90
2023-02-04T08:50:20.718Z,99.90
2023-02-04T08:52:51.417Z,99.90
2023-02-04T08:55:19.578Z,99.90
2023-02-04T08:57:47.762Z,99.90
2023-02-04T09:00:18.737Z,99.90
2023-02-04T09:02:46.984Z,99.90
2023-02-04T09:05:15.180Z,99.90
2023-02-04T09:07:46.193Z,99.90
2023-02-04T09:10:14.441Z,99.90
2023-02-04T09:12:45.811Z,99.90
2023-02-04T09:15:14.303Z,99.90
2023-02-04T09:17:44.563Z,99.90
2023-02-04T09:20:13.563Z,99.90
2023-02-04T09:22:43.989Z,99.90
2023-02-04T09:25:12.394Z,99.90
2023-02-04T09:27:40.653Z,99.90
2023-02-04T09:30:09.912Z,99.90
2023-02-04T09:32:38.106Z,99.90
2023-02-04T09:35:08.054Z,99.90
2023-02-04T09:37:36.255Z,99.90
2023-02-04T09:40:04.689Z,99.90
2023-02-04T09:42:32.940Z,99.90
2023-02-04T09:45:03.201Z,99.90
2023-02-04T09:47:32.158Z,99.90
2023-02-04T09:50:00.433Z,99.90
2023-02-04T09:52:30.257Z,98.20
2023-02-04T09:54:58.476Z,99.80
2023-02-04T09:57:26.708Z,96.70
2023-02-04T09:59:55.239Z,95.30
2023-02-04T10:02:26.022Z,94.20
2023-02-04T10:04:58.611Z,94.50
2023-02-04T10:07:27.875Z,93.10
2023-02-04T10:09:57.624Z,86.60
2023-02-04T10:12:27.296Z,88.70
2023-02-04T10:14:55.586Z,87.70
2023-02-04T10:17:24.274Z,87.80
2023-02-04T10:19:53.034Z,86.80
2023-02-04T10:22:23.777Z,86.00
2023-02-04T10:24:52.106Z,85.20
2023-02-04T10:27:21.681Z,83.40
2023-02-04T10:29:57.623Z,82.60
2023-02-04T10:32:33.824Z,79.70
2023-02-04T10:35:03.707Z,79.90
2023-02-04T10:37:32.247Z,82.10
2023-02-04T10:40:02.917Z,83.00
2023-02-04T10:42:33.156Z,81.40
2023-02-04T10:45:01.509Z,79.30
2023-02-04T10:47:31.644Z,79.00
2023-02-04T10:50:04.760Z,81.20
2023-02-04T10:52:38.429Z,81.60
2023-02-04T10:55:12.401Z,83.00
2023-02-04T10:57:43.372Z,85.00
2023-02-04T11:00:19.343Z,85.90
2023-02-04T11:02:53.749Z,89.20
2023-02-04T11:05:23.516Z,89.40
2023-02-04T11:07:52.377Z,90.20
2023-02-04T11:10:24.418Z,90.70
2023-02-04T11:13:05.027Z,90.90
2023-02-04T11:15:42.574Z,91.30
2023-02-04T11:18:13.273Z,91.00
2023-02-04T11:20:42.077Z,92.20
2023-02-04T11:23:18.923Z,93.10
2023-02-04T11:25:48.760Z,92.60
2023-02-04T11:28:27.114Z,93.60
2023-02-04T11:31:01.574Z,93.80
2023-02-04T11:33:40.771Z,94.00
2023-02-04T11:36:11.969Z,94.00
2023-02-04T11:38:40.698Z,95.00
2023-02-04T11:41:17.631Z,95.40
2023-02-04T11:43:48.190Z,95.50
2023-02-04T11:46:19.152Z,96.40
2023-02-04T11:48:47.356Z,97.30
2023-02-04T11:51:18.332Z,97.90
2023-02-04T11:53:52.708Z,98.60
2023-02-04T11:56:22.524Z,99.20
2023-02-04T11:58:52.406Z,99.70
2023-02-04T12:01:21.593Z,99.90
2023-02-04T12:03:52.215Z,99.90
2023-02-04T12:06:25.165Z,99.90
2023-02-04T12:08:53.325Z,99.90
2023-02-04T12:11:30.524Z,99.90
2023-02-04T12:14:09.722Z,99.90
2023-02-04T12:16:47.383Z,99.90
2023-02-04T12:19:15.799Z,99.90
2023-02-04T12:21:44.392Z,99.90
2023-02-04T12:24:12.675Z,99.90
2023-02-04T12:26:40.965Z,99.90
2023-02-04T12:29:10.570Z,99.90
2023-02-04T12:31:38.850Z,99.90
2023-02-04T12:34:07.084Z,99.90
2023-02-04T12:36:35.240Z,99.90
2023-02-04T12:39:03.927Z,99.90
2023-02-04T12:41:32.124Z,99.90
2023-02-04T12:44:01.419Z,99.90
2023-02-04T12:46:31.121Z,99.90
2023-02-04T12:48:59.308Z,99.90
2023-02-04T12:51:27.520Z,99.90
2023-02-04T12:53:55.703Z,99.90
2023-02-04T12:56:24.305Z,99.90
2023-02-04T12:58:52.485Z,99.90
2023-02-04T13:01:23.191Z,99.90
2023-02-04T13:03:52.816Z,99.90
2023-02-04T13:06:20.982Z,99.90
2023-02-04T13:08:49.174Z,99.90
2023-02-04T13:11:17.332Z,99.90
2023-02-04T13:13:45.486Z,99.90
2023-02-04T13:16:13.815Z,99.90
2023-02-04T13:18:42.044Z,99.90
2023-02-04T13:21:11.564Z,99.90
2023-02-04T13:23:39.808Z,99.90
2023-02-04T13:26:08.966Z,99.90
2023-02-04T13:28:37.497Z,99.90
2023-02-04T13:31:06.258Z,99.90
2023-02-04T13:33:34.625Z,99.90
2023-02-04T13:36:02.819Z,99.90
2023-02-04T13:38:32.377Z,99.90
2023-02-04T13:41:00.560Z,99.90
2023-02-04T13:43:28.805Z,99.90
2023-02-04T13:45:57.924Z,99.90
2023-02-04T13:48:26.267Z,99.90
2023-02-04T13:50:54.485Z,99.90
2023-02-04T13:53:22.802Z,99.90
2023-02-04T13:55:52.415Z,99.90
2023-02-04T13:58:20.578Z,99.90
2023-02-04T14:00:48.889Z,99.90
2023-02-04T14:03:17.024Z,99.90
2023-02-04T14:05:45.230Z,99.90
2023-02-04T14:08:13.427Z,99.90
2023-02-04T14:10:41.645Z,99.90
2023-02-04T14:13:11.333Z,99.90
2023-02-04T14:15:41.589Z,99.90
2023-02-04T14:18:09.865Z,99.90
2023-02-04T14:20:39.087Z,99.90
2023-02-04T14:23:07.610Z,99.90
2023-02-04T14:25:36.138Z,99.90
2023-02-04T14:28:04.453Z,99.90
2023-02-04T14:30:35.280Z,99.90
2023-02-04T14:33:03.763Z,99.90
2023-02-04T14:35:32.677Z,99.90
2023-02-04T14:38:01.023Z,99.90
2023-02-04T14:40:29.245Z,99.90
2023-02-04T14:42:57.481Z,99.90
2023-02-04T14:45:25.721Z,99.90
2023-02-04T14:48:00.467Z,99.90
2023-02-04T14:50:31.366Z,99.90
2023-02-04T14:52:59.983Z,99.90
2023-02-04T14:55:28.758Z,99.90
2023-02-04T14:57:56.947Z,99.90
2023-02-04T15:00:25.465Z,99.90
2023-02-04T15:02:55.019Z,99.90
2023-02-04T15:05:23.545Z,99.90
2023-02-04T15:07:51.810Z,99.90
2023-02-04T15:10:22.897Z,99.90
2023-02-04T15:12:55.286Z,99.90
2023-02-04T15:15:23.716Z,99.90
2023-02-04T15:17:51.982Z,99.90
2023-02-04T15:20:21.690Z,99.90
2023-02-04T15:22:51.868Z,99.90
2023-02-04T15:25:20.229Z,99.90
2023-02-04T15:27:48.597Z,99.90
2023-02-04T15:30:17.536Z,99.90
2023-02-04T15:32:46.161Z,99.90
2023-02-04T15:35:14.651Z,99.90
2023-02-04T15:37:44.203Z,99.90
2023-02-04T15:40:13.402Z,99.90
2023-02-04T15:42:41.877Z,99.90
2023-02-04T15:45:10.677Z,99.90
2023-02-04T15:47:38.855Z,99.90
2023-02-04T15:50:09.130Z,99.90
2023-02-04T15:52:37.566Z,99.90
2023-02-04T15:55:08.021Z,99.90
2023-02-04T15:57:36.694Z,99.90
2023-02-04T16:00:06.277Z,99.90
2023-02-04T16:02:34.730Z,99.90
2023-02-04T16:05:03.068Z,99.90
2023-02-04T16:07:31.397Z,99.90
2023-02-04T16:09:59.655Z,99.90
2023-02-04T16:12:29.691Z,99.90
2023-02-04T16:14:57.860Z,99.90
2023-02-04T16:17:26.034Z,99.90
2023-02-04T16:19:54.197Z,99.90
2023-02-04T16:22:22.397Z,99.90
2023-02-04T16:24:52.833Z,99.90
2023-02-04T16:27:21.258Z,99.90
2023-02-04T16:29:50.798Z,99.90
2023-02-04T16:32:19.056Z,99.90
2023-02-04T16:34:47.263Z,99.90
2023-02-04T16:37:15.946Z,99.90
2023-02-04T16:39:45.333Z,99.90
2023-02-04T16:42:13.901Z,99.90
2023-02-04T16:44:42.268Z,99.90
2023-02-04T16:47:12.496Z,99.90
2023-02-04T16:49:40.696Z,99.90
2023-02-04T16:52:08.953Z,99.90
2023-02-04T16:54:37.357Z,99.90
2023-02-04T16:57:08.853Z,99.90
2023-02-04T16:59:38.309Z,99.90
2023-02-04T17:02:06.971Z,99.90
2023-02-04T17:04:36.647Z,99.90
2023-02-04T17:07:05.670Z,99.90
2023-02-04T17:09:33.939Z,99.90
2023-02-04T17:12:02.348Z,99.90
2023-02-04T17:14:32.770Z,99.90
2023-02-04T17:17:00.960Z,99.90
2023-02-04T17:19:29.306Z,99.90
2023-02-04T17:22:01.238Z,99.90
2023-02-04T17:24:29.408Z,99.90
2023-02-04T17:26:57.720Z,99.90
2023-02-04T17:29:25.933Z,99.90
2023-02-04T17:31:54.273Z,99.90
2023-02-04T17:34:22.438Z,99.90
2023-02-04T17:36:50.719Z,99.90
2023-02-04T17:39:20.374Z,99.90
2023-02-04T17:41:48.578Z,99.90
2023-02-04T17:44:20.147Z,99.90
2023-02-04T17:46:48.413Z,99.90
2023-02-04T17:49:16.587Z,99.90
2023-02-04T17:51:47.050Z,99.90
2023-02-04T17:54:15.693Z,99.90
2023-02-04T17:56:45.410Z,99.90
2023-02-04T17:59:14.578Z,99.90
2023-02-04T18:01:44.630Z,99.90
2023-02-04T18:04:13.890Z,99.90
2023-02-04T18:06:42.364Z,99.90
2023-02-04T18:09:16.256Z,99.90
2023-02-04T18:11:46.640Z,99.90
2023-02-04T18:14:17.984Z,99.90
2023-02-04T18:16:46.694Z,99.90
2023-02-04T18:19:19.336Z,99.90
2023-02-04T18:21:48.251Z,99.90
2023-02-04T18:24:19.004Z,99.90
2023-02-04T18:26:50.362Z,99.90
2023-02-04T18:29:36.361Z,99.90
2023-02-04T18:32:11.514Z,99.90
2023-02-04T18:34:41.548Z,99.90
2023-02-04T18:37:28.039Z,99.90
2023-02-04T18:39:58.973Z,99.90
2023-02-04T18:42:29.037Z,99.90
2023-02-04T18:44:57.210Z,99.90
2023-02-04T18:47:33.696Z,99.90
2023-02-04T18:50:03.168Z,99.90
2023-02-04T18:52:38.389Z,99.90
2023-02-04T18:55:21.854Z,99.90
2023-02-04T18:57:51.582Z,99.90
2023-02-04T19:00:34.526Z,99.90
2023-02-04T19:03:20.983Z,99.90
2023-02-04T19:05:50.293Z,99.90
2023-02-04T19:08:24.335Z,99.90
2023-02-04T19:10:56.350Z,99.90
2023-02-04T19:13:27.918Z,99.90
2023-02-04T19:16:03.640Z,99.90
2023-02-04T19:18:39.648Z,99.90
2023-02-04T19:21:32.360Z,99.90
2023-02-04T19:24:09.740Z,99.90
2023-02-04T19:26:42.985Z,99.90
2023-02-04T19:29:41.338Z,99.90
2023-02-04T19:32:27.464Z,99.90
2023-02-04T19:34:59.247Z,99.90
2023-02-04T19:37:29.867Z,99.90
2023-02-04T19:39:58.050Z,99.90
2023-02-04T19:42:30.618Z,99.90
2023-02-04T19:45:02.520Z,99.90
2023-02-04T19:47:37.924Z,99.90
2023-02-04T19:50:28.861Z,99.90
2023-02-04T19:53:02.554Z,99.90
2023-02-04T19:55:34.346Z,99.90
2023-02-04T19:58:12.040Z,99.90
2023-02-04T20:01:00.684Z,99.90
2023-02-04T20:03:36.997Z,99.90
2023-02-04T20:06:30.762Z,99.90
2023-02-04T20:09:01.169Z,99.90
2023-02-04T20:11:41.930Z,99.90
2023-02-04T20:14:26.641Z,99.90
2023-02-04T20:16:58.514Z,99.90
2023-02-04T20:19:35.316Z,99.90
2023-02-04T20:22:33.967Z,99.90
2023-02-04T20:25:41.249Z,99.90
2023-02-04T20:28:39.918Z,99.90
2023-02-04T20:31:24.906Z,99.90
2023-02-04T20:33:56.210Z,99.90
2023-02-04T20:36:40.906Z,99.90
2023-02-04T20:39:36.074Z,99.90
2023-02-04T20:42:30.523Z,99.90
2023-02-04T20:45:27.863Z,99.90
2023-02-04T20:47:59.853Z,99.90
2023-02-04T20:50:41.213Z,99.90
2023-02-04T20:53:20.327Z,99.90
2023-02-04T20:55:51.395Z,99.90
2023-02-04T20:58:21.939Z,99.90
2023-02-04T21:00:53.943Z,99.90
2023-02-04T21:03:28.670Z,99.90
2023-02-04T21:06:00.062Z,99.90
2023-02-04T21:08:42.416Z,99.90
2023-02-04T21:11:10.701Z,99.90
2023-02-04T21:13:40.785Z,99.90
2023-02-04T21:16:09.779Z,99.90
2023-02-04T21:18:39.034Z,99.90
2023-02-04T21:21:10.261Z,99.90
2023-02-04T21:23:39.068Z,99.90
2023-02-04T21:26:07.786Z,99.90
2023-02-04T21:28:36.024Z,99.90
2023-02-04T21:31:04.324Z,99.90
2023-02-04T21:33:32.651Z,99.90
2023-02-04T21:36:00.826Z,99.90
2023-02-04T21:38:30.333Z,99.90
2023-02-04T21:40:58.605Z,99.90
2023-02-04T21:43:26.825Z,99.90
2023-02-04T21:45:54.988Z,99.90
2023-02-04T21:48:25.734Z,99.90
2023-02-04T21:50:54.025Z,99.90
2023-02-04T21:53:22.278Z,99.90
2023-02-04T21:55:51.862Z,99.90
2023-02-04T21:58:22.319Z,99.90
2023-02-04T22:00:50.790Z,99.90
2023-02-04T22:03:19.043Z,99.90
2023-02-04T22:05:47.542Z,99.90
2023-02-04T22:08:18.244Z,99.90
2023-02-04T22:10:46.448Z,99.90
2023-02-04T22:13:33.534Z,99.90
2023-02-04T22:16:01.786Z,99.90
2023-02-04T22:18:29.962Z,99.90
2023-02-04T22:20:58.128Z,99.90
2023-02-04T22:23:26.312Z,99.90
2023-02-04T22:25:54.491Z,99.90
2023-02-04T22:28:24.083Z,99.90
2023-02-04T22:30:54.157Z,99.90
2023-02-04T22:33:22.523Z,99.90
2023-02-04T22:35:50.768Z,99.90
2023-02-04T22:38:20.165Z,99.90
2023-02-04T22:40:48.974Z,99.90
2023-02-04T22:43:19.393Z,99.90
2023-02-04T22:45:48.903Z,99.90
2023-02-04T22:48:17.183Z,99.90
2023-02-04T22:50:47.849Z,99.90
2023-02-04T22:53:16.092Z,99.90
2023-02-04T22:55:46.774Z,99.90
2023-02-04T22:58:17.447Z,99.90
2023-02-04T23:00:45.677Z,99.90
2023-02-04T23:03:15.302Z,99.90
2023-02-04T23:05:45.212Z,99.90
2023-02-04T23:08:13.582Z,99.90
2023-02-04T23:10:41.925Z,99.90
2023-02-04T23:13:10.688Z,99.90
2023-02-04T23:15:39.317Z,99.90
2023-02-04T23:18:07.491Z,99.90
2023-02-04T23:20:40.815Z,99.90
2023-02-04T23:23:10.602Z,99.90
2023-02-04T23:25:41.776Z,99.90
2023-02-04T23:28:09.970Z,99.90
2023-02-04T23:30:38.141Z,99.90
2023-02-04T23:33:06.539Z,99.90
2023-02-04T23:35:35.380Z,99.90
2023-02-04T23:38:05.144Z,99.90
2023-02-04T23:40:35.525Z,99.90
2023-02-04T23:43:06.199Z,99.90
2023-02-04T23:45:34.865Z,99.90
2023-02-04T23:48:03.293Z,99.90
2023-02-04T23:50:31.481Z,99.90
2023-02-04T23:52:59.722Z,99.90
2023-02-04T23:55:29.396Z,99.90
2023-02-04T23:57:57.556Z,99.90
